Terminal Aerodrome Forecast
Issued by NWS

Home | Current Version | Previous Version | Text Only | Print | Product List | Glossary On
Versions: 1 2 3 4 5 6 7 8 9 10 11 12 13 14 15 16 17 18
000
FTUS45 KTFX 291908 AAA
TAFLWT
TAF AMD
KLWT 291908Z 2919/3018 14005KT P6SM BKN140
     FM292000 18014G20KT P6SM SCT100 BKN250
     FM300300 17008KT 6SM FU SCT100 BKN200
     FM300700 25007KT 6SM FU BKN120 PROB30 3009/3015 -SHRA BKN080
     FM301600 30007KT 5SM FU VCSH BKN120=

USA.gov is the U.S. government's official web portal to all federal, state and local government web resources and services.